Time;durP1;ratioP1;P1;durP2;ratioP2;P2;SDS_P1;SDS_P2;PMS_P1;PMS_P2;Temp;Humidity;BMP_temperature;BMP_pressure;BME280_temperature;BME280_humidity;BME280_pressure;Samples;Min_cycle;Max_cycle;Signal;HPM_P1;HPM_P2
2023/09/22 00:00:11;;;;;;;14.02;6.18;;;21.00;53.90;;;;;;5025987;28;114945;-80
2023/09/22 00:02:39;;;;;;;10.00;5.50;;;21.00;53.90;;;;;;5027102;27;115270;-80
2023/09/22 00:05:08;;;;;;;9.48;5.40;;;21.00;53.90;;;;;;5026794;27;114713;-79
2023/09/22 00:07:35;;;;;;;10.60;5.30;;;21.00;54.00;;;;;;5028482;27;114205;-80
2023/09/22 00:10:04;;;;;;;9.50;5.18;;;21.00;54.00;;;;;;4991582;28;115433;-80
2023/09/22 00:12:32;;;;;;;9.52;4.95;;;21.00;53.90;;;;;;5027069;28;114710;-79
2023/09/22 00:14:59;;;;;;;10.35;6.05;;;21.10;54.00;;;;;;5026996;28;114361;-80
2023/09/22 00:17:27;;;;;;;9.13;5.57;;;21.00;53.80;;;;;;5033602;27;114337;-79
2023/09/22 00:19:55;;;;;;;11.93;5.60;;;21.00;54.00;;;;;;5032140;27;116294;-79
2023/09/22 00:22:22;;;;;;;12.55;5.63;;;21.00;54.20;;;;;;5014137;27;116819;-80
2023/09/22 00:24:50;;;;;;;8.38;5.80;;;21.00;54.40;;;;;;5047471;27;114313;-80
2023/09/22 00:27:18;;;;;;;10.43;5.68;;;20.90;54.40;;;;;;5047774;27;114278;-79
2023/09/22 00:29:46;;;;;;;11.02;5.38;;;20.90;54.60;;;;;;5047247;27;115743;-79
2023/09/22 00:32:13;;;;;;;8.93;5.32;;;20.80;54.70;;;;;;5030744;27;114629;-79
2023/09/22 00:34:41;;;;;;;9.50;6.30;;;20.70;55.00;;;;;;5032946;27;114357;-79
2023/09/22 00:37:08;;;;;;;11.15;6.60;;;20.60;55.30;;;;;;5048778;27;114126;-79
2023/09/22 00:39:35;;;;;;;11.13;6.45;;;20.60;55.50;;;;;;5012159;27;115060;-79
2023/09/22 00:42:05;;;;;;;12.30;6.50;;;20.50;55.70;;;;;;5028584;27;114669;-80
2023/09/22 00:44:32;;;;;;;9.90;6.05;;;20.50;55.80;;;;;;5048157;27;114056;-80
2023/09/22 00:46:59;;;;;;;9.93;6.85;;;20.40;56.10;;;;;;5030802;27;115184;-79
2023/09/22 00:49:27;;;;;;;8.85;6.53;;;20.40;56.10;;;;;;5028978;27;115727;-80
2023/09/22 00:51:54;;;;;;;8.77;6.40;;;20.30;56.30;;;;;;5028905;27;114676;-79
2023/09/22 00:54:21;;;;;;;9.38;6.70;;;20.30;56.40;;;;;;5012785;27;114619;-79
2023/09/22 00:56:48;;;;;;;11.57;6.88;;;20.30;56.40;;;;;;5047847;27;114348;-79
2023/09/22 00:59:15;;;;;;;13.15;6.63;;;20.30;56.70;;;;;;5028149;27;114985;-79
2023/09/22 01:01:43;;;;;;;19.33;7.85;;;20.20;56.70;;;;;;5046445;27;114867;-79
2023/09/22 01:04:13;;;;;;;10.35;7.00;;;20.20;56.70;;;;;;5029396;27;114212;-79
2023/09/22 01:06:43;;;;;;;8.90;6.00;;;20.30;56.80;;;;;;5012385;27;114432;-78
2023/09/22 01:09:10;;;;;;;11.88;7.07;;;20.20;56.80;;;;;;5028128;27;117804;-79
2023/09/22 01:11:37;;;;;;;13.05;6.70;;;20.20;56.70;;;;;;5046717;27;114654;-79
2023/09/22 01:14:06;;;;;;;11.60;6.35;;;20.30;56.70;;;;;;5048223;27;114342;-78
2023/09/22 01:16:33;;;;;;;15.40;6.10;;;20.30;56.50;;;;;;5013212;27;114401;-79
2023/09/22 01:19:01;;;;;;;12.52;6.50;;;20.30;56.40;;;;;;5027305;27;114863;-79
2023/09/22 01:21:29;;;;;;;10.55;6.00;;;20.30;56.50;;;;;;5045856;27;115709;-79
2023/09/22 01:23:57;;;;;;;12.90;6.22;;;20.20;56.50;;;;;;5046622;27;114204;-79
2023/09/22 01:26:25;;;;;;;12.07;5.43;;;20.20;56.60;;;;;;5012333;27;114210;-79
2023/09/22 01:28:52;;;;;;;8.18;5.68;;;20.10;56.60;;;;;;5046801;27;115364;-80
2023/09/22 01:31:19;;;;;;;10.48;5.65;;;20.20;56.40;;;;;;4994940;27;114736;-80
2023/09/22 01:33:46;;;;;;;10.75;5.95;;;20.10;56.50;;;;;;5028888;27;114121;-80
2023/09/22 01:36:14;;;;;;;12.45;5.57;;;20.10;56.60;;;;;;5046998;27;114407;-80
2023/09/22 01:38:41;;;;;;;12.27;6.25;;;20.10;56.60;;;;;;5011350;27;114928;-79
2023/09/22 01:41:11;;;;;;;15.13;5.93;;;20.10;56.60;;;;;;5011553;27;114644;-80
2023/09/22 01:43:39;;;;;;;9.98;6.07;;;20.00;56.50;;;;;;5046523;27;114200;-80
2023/09/22 01:46:08;;;;;;;10.30;5.40;;;20.00;56.60;;;;;;5015032;28;114364;-80
2023/09/22 01:48:36;;;;;;;9.73;4.93;;;20.10;56.30;;;;;;5024943;28;116247;-80
2023/09/22 01:51:03;;;;;;;9.27;4.93;;;20.00;56.40;;;;;;5025708;28;115227;-80
2023/09/22 01:53:30;;;;;;;9.88;4.80;;;20.00;56.20;;;;;;5026628;28;114323;-78
2023/09/22 01:55:57;;;;;;;9.07;4.32;;;20.10;56.00;;;;;;5008894;28;114237;-78
2023/09/22 01:58:24;;;;;;;10.65;5.05;;;20.10;55.80;;;;;;4991125;28;114926;-78
2023/09/22 02:00:51;;;;;;;7.97;4.80;;;20.10;55.70;;;;;;5025542;28;114654;-78
2023/09/22 02:03:19;;;;;;;10.75;5.22;;;20.20;55.70;;;;;;5007811;28;114442;-79
2023/09/22 02:05:46;;;;;;;8.95;4.43;;;20.10;55.60;;;;;;5026689;28;114204;-79
2023/09/22 02:08:13;;;;;;;9.40;4.70;;;20.10;55.30;;;;;;5025631;28;115102;-79
2023/09/22 02:10:40;;;;;;;13.23;5.28;;;20.10;55.30;;;;;;5007768;28;114645;-79
2023/09/22 02:13:09;;;;;;;9.02;4.75;;;20.20;55.00;;;;;;4991610;28;114271;-78
2023/09/22 02:15:36;;;;;;;14.07;4.82;;;20.20;54.80;;;;;;4991950;28;114391;-78
2023/09/22 02:18:04;;;;;;;10.02;5.00;;;20.20;54.80;;;;;;4989812;28;117352;-78
2023/09/22 02:20:31;;;;;;;8.65;4.82;;;20.20;54.80;;;;;;5007277;28;114741;-78
2023/09/22 02:22:59;;;;;;;11.38;4.35;;;20.20;54.40;;;;;;5007567;28;114126;-79
2023/09/22 02:25:26;;;;;;;12.90;4.63;;;20.30;54.20;;;;;;5024844;28;114255;-78
2023/09/22 02:27:54;;;;;;;7.15;4.30;;;20.30;53.90;;;;;;5027719;27;115515;-79
2023/09/22 02:30:22;;;;;;;8.15;3.72;;;20.30;53.50;;;;;;5029052;28;115868;-78
2023/09/22 02:32:54;;;;;;;6.75;3.70;;;20.30;53.50;;;;;;5011454;28;114183;-79
2023/09/22 02:35:22;;;;;;;8.55;3.72;;;20.30;53.60;;;;;;4995499;28;114400;-78
2023/09/22 02:37:49;;;;;;;11.13;4.07;;;20.30;53.60;;;;;;5028690;28;115478;-79
2023/09/22 02:40:17;;;;;;;6.88;4.30;;;20.30;53.60;;;;;;5010344;28;115136;-79
2023/09/22 02:42:44;;;;;;;9.50;4.40;;;20.30;53.70;;;;;;5029558;28;114171;-79
2023/09/22 02:45:12;;;;;;;8.35;3.60;;;20.40;53.50;;;;;;4978374;28;114484;-79
2023/09/22 02:47:40;;;;;;;9.82;3.92;;;20.40;53.20;;;;;;5010510;28;115006;-79
2023/09/22 02:50:10;;;;;;;7.28;3.65;;;20.40;52.90;;;;;;5011050;28;114606;-79
2023/09/22 02:52:38;;;;;;;9.23;3.90;;;20.30;53.00;;;;;;5029220;28;114318;-78
2023/09/22 02:55:08;;;;;;;8.50;3.05;;;20.40;52.90;;;;;;5011854;28;114102;-79
2023/09/22 02:57:38;;;;;;;6.97;3.20;;;20.40;52.70;;;;;;5010848;28;114802;-78
2023/09/22 03:00:17;;;;;;;7.32;3.15;;;20.30;52.80;;;;;;4993555;28;115351;-79
2023/09/22 03:02:45;;;;;;;7.18;3.30;;;20.30;52.70;;;;;;5028671;28;114340;-79
2023/09/22 03:05:16;;;;;;;6.22;3.22;;;20.30;52.80;;;;;;5028855;28;114355;-79
2023/09/22 03:07:47;;;;;;;9.40;3.58;;;20.30;53.00;;;;;;5010053;28;115458;-79
2023/09/22 03:10:15;;;;;;;10.50;3.72;;;20.30;53.10;;;;;;4994114;28;115249;-79
2023/09/22 03:12:42;;;;;;;9.90;3.60;;;20.30;53.20;;;;;;5011210;28;114205;-80
2023/09/22 03:15:10;;;;;;;9.35;3.75;;;20.20;53.30;;;;;;5014197;28;114336;-78
2023/09/22 03:17:38;;;;;;;9.30;3.42;;;20.20;53.40;;;;;;4995413;28;114921;-79
2023/09/22 03:20:12;;;;;;;6.60;3.95;;;20.20;53.50;;;;;;5011007;28;114867;-79
2023/09/22 03:22:40;;;;;;;7.57;3.40;;;20.10;54.10;;;;;;4995440;28;114330;-80
2023/09/22 03:25:08;;;;;;;7.28;3.28;;;20.20;53.80;;;;;;5010860;28;114046;-78
2023/09/22 03:27:36;;;;;;;8.55;3.72;;;20.10;53.80;;;;;;4993429;28;115043;-79
2023/09/22 03:30:06;;;;;;;7.40;3.75;;;20.10;53.90;;;;;;5012850;28;115846;-79
2023/09/22 03:32:35;;;;;;;9.85;4.13;;;20.10;54.00;;;;;;5013173;28;114223;-79
2023/09/22 03:35:07;;;;;;;10.13;3.70;;;20.10;54.10;;;;;;5010653;28;114421;-79
2023/09/22 03:37:35;;;;;;;6.35;3.72;;;20.10;54.00;;;;;;5009645;28;114824;-80
2023/09/22 03:40:20;;;;;;;10.15;3.30;;;20.10;54.10;;;;;;5009802;28;115085;-78
2023/09/22 03:42:47;;;;;;;10.75;3.95;;;20.00;54.20;;;;;;5012961;28;114122;-79
2023/09/22 03:45:15;;;;;;;8.80;3.47;;;20.00;54.40;;;;;;5010914;28;114142;-79
2023/09/22 03:47:42;;;;;;;7.30;3.05;;;19.90;54.70;;;;;;5027348;28;115069;-78
2023/09/22 03:50:10;;;;;;;9.07;2.78;;;19.90;54.80;;;;;;5027520;28;114739;-78
2023/09/22 03:52:39;;;;;;;10.05;3.67;;;19.80;55.00;;;;;;5009806;28;114366;-79
2023/09/22 03:55:06;;;;;;;6.63;3.42;;;19.80;55.20;;;;;;5010178;28;114373;-79
2023/09/22 03:57:33;;;;;;;6.90;3.10;;;19.70;55.40;;;;;;5009539;28;115483;-79
2023/09/22 04:00:01;;;;;;;8.90;3.15;;;19.70;55.50;;;;;;5027258;28;115842;-79
2023/09/22 04:02:39;;;;;;;8.10;3.35;;;19.70;55.50;;;;;;5010521;28;114026;-79
2023/09/22 04:05:07;;;;;;;6.85;3.47;;;19.60;55.60;;;;;;5009997;28;114334;-79
2023/09/22 04:07:35;;;;;;;7.78;3.75;;;19.60;55.80;;;;;;5027300;28;115731;-78
2023/09/22 04:10:03;;;;;;;9.98;4.07;;;19.60;55.80;;;;;;5028301;28;114707;-78
2023/09/22 04:12:30;;;;;;;7.25;3.28;;;19.70;55.80;;;;;;4992835;28;114389;-79
2023/09/22 04:14:59;;;;;;;6.80;3.60;;;19.70;55.80;;;;;;5010069;28;114274;-79
2023/09/22 04:17:27;;;;;;;6.50;3.88;;;19.70;55.90;;;;;;5008342;28;115039;-79
2023/09/22 04:19:54;;;;;;;7.63;4.03;;;19.70;55.80;;;;;;5026869;28;114661;-79
2023/09/22 04:22:21;;;;;;;9.25;3.95;;;19.70;55.90;;;;;;5028022;28;114114;-79
2023/09/22 04:24:58;;;;;;;7.60;3.70;;;19.70;56.00;;;;;;5009515;28;114322;-79
2023/09/22 04:27:34;;;;;;;11.88;4.68;;;19.70;55.90;;;;;;5026847;28;115014;-78
2023/09/22 04:30:02;;;;;;;9.77;4.20;;;19.80;55.90;;;;;;5009685;28;114703;-79
2023/09/22 04:32:33;;;;;;;9.55;4.68;;;19.80;55.90;;;;;;5027796;28;114255;-79
2023/09/22 04:35:00;;;;;;;8.80;4.82;;;19.80;56.00;;;;;;4994191;28;114212;-79
2023/09/22 04:37:28;;;;;;;8.35;4.32;;;19.70;56.10;;;;;;5027213;28;116126;-80
2023/09/22 04:39:55;;;;;;;10.32;4.43;;;19.70;56.10;;;;;;5026998;28;114660;-80
2023/09/22 04:42:22;;;;;;;11.30;5.05;;;19.70;56.20;;;;;;5026898;28;114481;-79
2023/09/22 04:44:52;;;;;;;8.65;4.05;;;19.70;56.20;;;;;;5027538;28;114305;-79
2023/09/22 04:47:19;;;;;;;9.85;4.05;;;19.70;56.20;;;;;;5026170;28;116246;-80
2023/09/22 04:49:47;;;;;;;11.48;4.55;;;19.70;56.10;;;;;;5026560;27;115152;-78
2023/09/22 04:52:14;;;;;;;9.10;3.80;;;19.60;56.20;;;;;;5027645;28;114222;-80
2023/09/22 04:54:41;;;;;;;7.15;4.10;;;19.60;56.40;;;;;;5027321;28;114350;-79
2023/09/22 04:57:08;;;;;;;6.55;4.30;;;19.60;56.40;;;;;;5026191;28;115002;-79
2023/09/22 04:59:35;;;;;;;12.32;5.32;;;19.70;56.30;;;;;;5026418;28;114711;-79
2023/09/22 05:02:03;;;;;;;5.97;4.05;;;19.70;56.20;;;;;;5009450;28;114304;-79
2023/09/22 05:04:30;;;;;;;17.27;8.85;;;19.80;56.10;;;;;;4992346;28;114460;-79
2023/09/22 05:06:58;;;;;;;17.73;8.95;;;20.00;55.70;;;;;;5025564;28;115181;-79
2023/09/22 05:09:25;;;;;;;20.27;9.68;;;20.10;55.40;;;;;;5026089;28;114789;-80
2023/09/22 05:11:52;;;;;;;21.25;9.35;;;20.20;55.20;;;;;;5027021;28;114233;-79
2023/09/22 05:14:19;;;;;;;14.35;7.32;;;20.20;55.10;;;;;;5027054;28;114235;-80
2023/09/22 05:16:47;;;;;;;13.05;6.55;;;20.20;55.00;;;;;;5007292;28;115043;-79
2023/09/22 05:19:14;;;;;;;13.18;6.40;;;20.30;54.70;;;;;;5026127;28;114775;-80
2023/09/22 05:21:41;;;;;;;11.52;4.95;;;20.40;54.60;;;;;;5027074;28;114184;-79
2023/09/22 05:24:09;;;;;;;10.32;4.25;;;20.50;54.40;;;;;;5026851;28;114319;-79
2023/09/22 05:26:36;;;;;;;7.55;4.13;;;20.50;54.40;;;;;;4991537;28;115049;-79
2023/09/22 05:29:03;;;;;;;10.73;4.07;;;20.40;54.50;;;;;;5025953;28;115132;-79
2023/09/22 05:31:30;;;;;;;9.90;4.65;;;20.30;54.70;;;;;;5026602;28;114133;-80
2023/09/22 05:33:57;;;;;;;10.10;4.45;;;20.30;54.90;;;;;;5027007;28;114258;-80
2023/09/22 05:36:24;;;;;;;8.65;4.90;;;20.30;54.80;;;;;;5025815;28;115023;-80
2023/09/22 05:38:52;;;;;;;9.45;4.35;;;20.40;54.90;;;;;;5025613;28;114690;-79
2023/09/22 05:41:18;;;;;;;10.35;3.83;;;20.40;54.90;;;;;;5008657;28;114420;-79
2023/09/22 05:43:46;;;;;;;7.50;3.80;;;20.50;54.80;;;;;;5008703;28;114340;-79
2023/09/22 05:46:13;;;;;;;9.77;3.63;;;20.70;54.70;;;;;;5007568;28;115081;-80
2023/09/22 05:48:41;;;;;;;8.93;3.60;;;20.80;54.00;;;;;;5025820;28;114602;-79
2023/09/22 05:51:08;;;;;;;10.77;4.10;;;21.00;53.60;;;;;;5026402;28;114222;-79
2023/09/22 05:53:35;;;;;;;10.68;4.25;;;21.20;53.30;;;;;;5008406;28;114020;-80
2023/09/22 05:56:09;;;;;;;9.45;3.88;;;21.30;52.90;;;;;;5023880;28;115029;-80
2023/09/22 05:58:36;;;;;;;7.07;3.80;;;21.40;52.70;;;;;;5008094;28;114742;-79
2023/09/22 06:01:10;;;;;;;11.23;3.95;;;21.40;52.80;;;;;;5025402;28;114254;-79
2023/09/22 06:03:38;;;;;;;11.43;4.03;;;21.60;52.60;;;;;;5026344;28;114391;-79
2023/09/22 06:06:10;;;;;;;10.45;4.78;;;21.80;51.90;;;;;;5023929;28;115062;-80
2023/09/22 06:08:37;;;;;;;11.13;4.43;;;22.00;51.70;;;;;;5008223;28;115105;-79
2023/09/22 06:11:04;;;;;;;10.80;4.78;;;22.10;51.30;;;;;;5026781;28;114434;-80
2023/09/22 06:13:33;;;;;;;10.60;4.93;;;22.20;50.80;;;;;;5029483;28;114434;-79
2023/09/22 06:16:00;;;;;;;9.05;4.22;;;22.30;50.60;;;;;;5012276;28;114938;-79
2023/09/22 06:18:28;;;;;;;9.98;4.80;;;22.30;50.50;;;;;;5009460;28;115150;-80
2023/09/22 06:20:56;;;;;;;11.65;4.10;;;22.30;50.40;;;;;;5007568;28;114257;-79
2023/09/22 06:23:26;;;;;;;11.88;3.60;;;22.30;50.30;;;;;;5026212;28;114954;-79
2023/09/22 06:25:56;;;;;;;8.57;3.08;;;22.30;50.10;;;;;;5007076;28;115102;-79
2023/09/22 06:28:23;;;;;;;8.02;2.90;;;22.20;50.30;;;;;;5033368;28;114619;-79
2023/09/22 06:30:50;;;;;;;6.03;2.95;;;22.20;50.50;;;;;;4981820;28;114389;-79
2023/09/22 06:33:17;;;;;;;6.50;2.95;;;22.10;50.50;;;;;;5026428;28;114122;-79
2023/09/22 06:35:45;;;;;;;9.20;4.38;;;22.10;50.70;;;;;;5007143;28;115819;-80
2023/09/22 06:38:13;;;;;;;8.18;2.50;;;22.00;50.80;;;;;;5006734;28;115085;-79
2023/09/22 06:40:41;;;;;;;8.68;3.08;;;21.90;51.00;;;;;;5008557;28;114465;-79
2023/09/22 06:43:08;;;;;;;9.98;3.13;;;21.80;51.00;;;;;;4975917;28;114385;-79
2023/09/22 06:45:52;;;;;;;9.77;4.43;;;21.90;51.20;;;;;;5024312;28;114889;-79
2023/09/22 06:48:22;;;;;;;8.00;3.38;;;22.00;51.00;;;;;;5007707;28;114652;-79
2023/09/22 06:50:51;;;;;;;5.88;2.35;;;22.00;51.00;;;;;;5025899;28;114359;-79
2023/09/22 06:53:19;;;;;;;7.65;2.40;;;22.20;51.00;;;;;;5007614;28;114405;-80
2023/09/22 06:55:46;;;;;;;6.55;2.30;;;22.30;50.90;;;;;;5024713;28;114933;-79
2023/09/22 06:58:13;;;;;;;6.85;2.40;;;22.40;50.50;;;;;;5023660;28;115292;-79
2023/09/22 07:00:40;;;;;;;6.05;2.72;;;22.60;50.30;;;;;;5025578;28;114047;-79
2023/09/22 07:03:08;;;;;;;6.70;2.80;;;22.70;50.00;;;;;;5025955;28;114287;-79
2023/09/22 07:05:35;;;;;;;5.40;2.30;;;22.80;49.80;;;;;;5024229;28;114799;-79
2023/09/22 07:08:03;;;;;;;6.63;2.60;;;22.90;49.60;;;;;;5024292;28;116812;-80
2023/09/22 07:10:33;;;;;;;8.73;3.17;;;22.80;49.70;;;;;;5006963;28;114352;-79
2023/09/22 07:13:02;;;;;;;4.80;2.53;;;22.80;49.60;;;;;;5026583;27;114002;-80
2023/09/22 07:15:29;;;;;;;9.38;2.40;;;22.80;49.90;;;;;;5028113;28;114677;-79
2023/09/22 07:17:56;;;;;;;6.90;2.33;;;22.80;50.00;;;;;;5027534;28;114996;-81
2023/09/22 07:20:23;;;;;;;7.40;2.63;;;22.90;49.80;;;;;;5028647;28;114186;-80
2023/09/22 07:22:50;;;;;;;9.18;2.42;;;23.20;49.80;;;;;;5010805;28;114421;-80
2023/09/22 07:25:17;;;;;;;6.07;2.30;;;23.40;49.10;;;;;;5010278;28;115438;-80
2023/09/22 07:27:44;;;;;;;7.10;2.42;;;23.60;48.40;;;;;;5028003;28;115659;-79
2023/09/22 07:30:12;;;;;;;8.70;2.65;;;23.70;48.30;;;;;;5010435;28;114496;-79
2023/09/22 07:32:39;;;;;;;4.90;2.60;;;23.80;47.90;;;;;;5028971;28;114161;-78
2023/09/22 07:35:07;;;;;;;5.00;2.30;;;23.90;47.90;;;;;;5027252;28;114908;-79
2023/09/22 07:37:34;;;;;;;7.25;2.58;;;23.90;47.50;;;;;;5009687;28;114704;-79
2023/09/22 07:40:08;;;;;;;7.00;3.20;;;23.90;47.50;;;;;;5010564;28;114428;-81
2023/09/22 07:42:38;;;;;;;10.13;2.90;;;23.80;47.40;;;;;;5028565;28;114313;-81
2023/09/22 07:45:06;;;;;;;6.60;2.60;;;23.70;47.60;;;;;;5009565;28;117006;-79
2023/09/22 07:47:34;;;;;;;6.82;3.00;;;23.80;47.90;;;;;;5027494;28;114594;-80
2023/09/22 07:50:02;;;;;;;7.53;3.05;;;23.80;47.90;;;;;;5010304;28;114305;-79
2023/09/22 07:52:29;;;;;;;8.95;3.00;;;23.90;47.60;;;;;;5028644;28;114071;-79
2023/09/22 07:54:57;;;;;;;8.65;3.35;;;24.10;47.50;;;;;;5027054;28;116728;-80
2023/09/22 07:57:25;;;;;;;7.53;2.65;;;24.30;47.30;;;;;;5009820;28;114674;-80
2023/09/22 07:59:54;;;;;;;6.70;2.47;;;24.40;46.90;;;;;;5009683;28;114319;-80
2023/09/22 08:02:21;;;;;;;4.97;2.42;;;24.40;46.60;;;;;;5028166;28;114226;-79
2023/09/22 08:04:48;;;;;;;7.35;2.70;;;24.40;46.40;;;;;;5009296;28;115201;-80
2023/09/22 08:07:15;;;;;;;6.32;2.47;;;24.40;46.60;;;;;;5027361;28;114962;-80
2023/09/22 08:09:42;;;;;;;5.68;2.55;;;24.50;46.50;;;;;;4976701;28;115076;-79
2023/09/22 08:12:10;;;;;;;4.50;2.40;;;24.60;46.70;;;;;;5010286;28;114432;-80
2023/09/22 08:14:37;;;;;;;8.52;2.92;;;24.80;46.40;;;;;;5027043;28;115452;-81
2023/09/22 08:17:11;;;;;;;6.68;2.55;;;24.90;45.90;;;;;;5027168;28;115148;-79
2023/09/22 08:19:38;;;;;;;8.00;2.88;;;24.90;45.90;;;;;;5027708;28;114297;-79
2023/09/22 08:22:06;;;;;;;7.32;2.60;;;24.90;46.00;;;;;;5027818;28;114260;-80
2023/09/22 08:24:33;;;;;;;6.53;2.78;;;25.00;45.50;;;;;;5025369;27;115046;-79
2023/09/22 08:27:01;;;;;;;5.43;2.38;;;25.00;45.80;;;;;;5026892;28;114654;-79
2023/09/22 08:29:28;;;;;;;6.93;2.72;;;25.10;45.60;;;;;;4993205;28;114352;-79
2023/09/22 08:31:55;;;;;;;5.88;2.20;;;25.10;45.30;;;;;;5009322;28;114254;-79
2023/09/22 08:34:22;;;;;;;8.38;2.90;;;25.20;45.30;;;;;;5026172;28;115431;-79
2023/09/22 08:36:50;;;;;;;6.38;2.40;;;25.30;45.30;;;;;;5007727;28;114758;-79
2023/09/22 08:39:17;;;;;;;9.90;2.70;;;25.30;45.50;;;;;;5009290;28;114281;-79
2023/09/22 08:41:44;;;;;;;5.75;2.58;;;25.30;45.00;;;;;;5009882;28;114209;-79
2023/09/22 08:44:11;;;;;;;5.78;2.40;;;25.40;44.90;;;;;;4991933;28;115247;-80
2023/09/22 08:46:38;;;;;;;8.70;2.78;;;25.40;44.70;;;;;;5008589;28;114594;-79
2023/09/22 08:49:06;;;;;;;5.53;2.70;;;25.40;44.90;;;;;;4992333;28;114568;-79
2023/09/22 08:51:33;;;;;;;5.93;2.58;;;25.30;44.90;;;;;;5009231;28;113975;-79
2023/09/22 08:54:00;;;;;;;6.13;2.72;;;25.30;45.00;;;;;;5008321;28;115403;-79
2023/09/22 08:56:27;;;;;;;7.40;2.53;;;25.30;45.10;;;;;;5026084;28;114728;-78
2023/09/22 08:58:54;;;;;;;5.40;2.35;;;25.20;45.20;;;;;;5009214;28;114292;-79
2023/09/22 09:01:23;;;;;;;6.65;2.80;;;25.20;45.40;;;;;;4976171;28;114244;-79
2023/09/22 09:03:51;;;;;;;6.35;2.63;;;25.30;45.50;;;;;;5026065;28;115782;-80
2023/09/22 09:06:20;;;;;;;5.68;2.65;;;25.30;45.40;;;;;;5007759;28;118081;-79
2023/09/22 09:09:12;;;;;;;7.82;2.35;;;25.50;45.20;;;;;;5026980;28;114307;-79
2023/09/22 09:12:00;;;;;;;10.20;3.55;;;25.60;45.10;;;;;;5026724;28;114347;-79
2023/09/22 09:14:31;;;;;;;10.40;3.30;;;25.70;44.40;;;;;;5006681;28;116952;-79
2023/09/22 09:16:58;;;;;;;5.20;2.50;;;25.60;44.20;;;;;;4990608;28;117751;-81
2023/09/22 09:19:30;;;;;;;5.97;2.20;;;25.50;44.40;;;;;;5024294;28;114326;-79
2023/09/22 09:22:09;;;;;;;8.15;2.80;;;25.50;44.40;;;;;;5025445;28;114346;-79
2023/09/22 09:24:37;;;;;;;6.85;2.30;;;25.50;44.80;;;;;;5006381;28;118422;-79
2023/09/22 09:27:17;;;;;;;5.65;2.20;;;25.60;44.80;;;;;;5006422;28;114653;-80
2023/09/22 09:29:50;;;;;;;6.95;2.25;;;25.70;44.60;;;;;;5025023;28;114214;-81
2023/09/22 09:32:27;;;;;;;5.10;2.70;;;25.70;44.60;;;;;;5008159;28;114205;-80
2023/09/22 09:34:54;;;;;;;7.38;2.85;;;25.70;44.00;;;;;;5024316;28;114952;-79
2023/09/22 09:37:23;;;;;;;8.07;2.50;;;25.60;44.30;;;;;;5005953;28;114647;-81
2023/09/22 09:39:55;;;;;;;6.95;2.42;;;25.60;44.40;;;;;;5024503;28;114790;-79
2023/09/22 09:42:23;;;;;;;5.30;2.10;;;25.70;43.90;;;;;;5023787;28;114301;-78
2023/09/22 09:44:52;;;;;;;4.85;2.22;;;25.60;44.00;;;;;;4990213;28;116126;-79
2023/09/22 09:47:25;;;;;;;6.93;2.72;;;25.60;44.00;;;;;;5024119;28;115617;-79
2023/09/22 09:49:57;;;;;;;9.00;3.00;;;25.70;44.10;;;;;;5024966;28;114183;-79
2023/09/22 09:52:29;;;;;;;8.60;2.88;;;25.60;44.50;;;;;;5024671;28;114157;-80
2023/09/22 09:55:07;;;;;;;9.38;3.20;;;25.60;44.70;;;;;;5023702;28;116199;-79
2023/09/22 09:57:36;;;;;;;6.00;2.55;;;25.50;45.00;;;;;;5009278;28;114833;-80
2023/09/22 10:00:13;;;;;;;6.63;3.00;;;25.40;44.80;;;;;;4990603;28;114276;-80
2023/09/22 10:02:44;;;;;;;10.75;2.42;;;25.30;44.70;;;;;;5008635;28;114125;-80
2023/09/22 10:05:14;;;;;;;7.93;2.85;;;25.20;44.60;;;;;;5005195;28;115406;-80
2023/09/22 10:07:44;;;;;;;7.07;2.70;;;25.00;45.20;;;;;;5023828;28;115179;-81
2023/09/22 10:10:12;;;;;;;7.38;2.65;;;24.90;45.50;;;;;;5024724;28;114431;-79
2023/09/22 10:12:40;;;;;;;9.30;2.47;;;24.90;45.50;;;;;;5006793;28;114449;-80
2023/09/22 10:15:07;;;;;;;11.15;2.80;;;25.00;45.50;;;;;;5023806;28;114971;-80
2023/09/22 10:17:35;;;;;;;9.98;3.53;;;24.80;46.00;;;;;;4982258;28;1174309;-81
2023/09/22 10:20:10;;;;;;;11.02;3.25;;;24.90;45.90;;;;;;5025910;28;114078;-80
2023/09/22 10:22:38;;;;;;;8.90;3.40;;;24.90;46.00;;;;;;4976665;28;114143;-79
2023/09/22 10:25:14;;;;;;;7.78;3.08;;;24.90;46.00;;;;;;5007004;28;116082;-80
2023/09/22 10:28:01;;;;;;;9.68;3.22;;;25.00;46.00;;;;;;5025203;28;115169;-80
2023/09/22 10:30:44;;;;;;;8.25;3.22;;;24.80;46.30;;;;;;5025594;28;114430;-79
2023/09/22 10:33:25;;;;;;;7.75;2.85;;;24.80;46.30;;;;;;5007023;28;114515;-82
2023/09/22 10:35:53;;;;;;;15.23;3.97;;;24.90;46.10;;;;;;5027365;28;115080;-80
2023/09/22 10:38:21;;;;;;;7.80;2.88;;;24.90;46.20;;;;;;5006717;28;116815;-80
2023/09/22 10:41:03;;;;;;;8.75;3.58;;;24.90;45.80;;;;;;5006331;28;114515;-82
2023/09/22 10:43:32;;;;;;;5.82;2.80;;;24.90;46.00;;;;;;5025727;28;114162;-78
2023/09/22 10:45:59;;;;;;;7.60;2.88;;;24.90;45.80;;;;;;5007056;28;114916;-79
2023/09/22 10:48:32;;;;;;;9.98;2.83;;;24.90;46.00;;;;;;5026997;27;115259;-80
2023/09/22 10:50:59;;;;;;;5.78;2.60;;;24.90;46.10;;;;;;5028786;28;114134;-80
2023/09/22 10:53:26;;;;;;;6.30;2.40;;;24.80;45.80;;;;;;5029210;28;114307;-79
2023/09/22 10:55:53;;;;;;;8.90;2.78;;;24.70;46.20;;;;;;5009771;28;115255;-79
2023/09/22 10:58:21;;;;;;;9.18;2.85;;;24.60;46.40;;;;;;4993422;28;115921;-79
2023/09/22 11:00:59;;;;;;;9.80;2.45;;;24.60;46.60;;;;;;5011037;28;114509;-80
2023/09/22 11:03:27;;;;;;;6.97;2.47;;;24.70;46.70;;;;;;5010867;28;114396;-79
2023/09/22 11:05:58;;;;;;;6.68;2.90;;;24.70;46.50;;;;;;5027948;28;114889;-79
2023/09/22 11:08:25;;;;;;;5.32;2.35;;;24.70;46.40;;;;;;4993519;28;116138;-80
2023/09/22 11:10:53;;;;;;;8.90;2.67;;;24.80;46.00;;;;;;5028919;28;114263;-81
2023/09/22 11:13:24;;;;;;;7.30;2.40;;;24.70;45.80;;;;;;5010486;28;114289;-81
2023/09/22 11:16:01;;;;;;;10.18;2.65;;;24.60;46.00;;;;;;5027818;28;114935;-80
2023/09/22 11:18:32;;;;;;;6.88;2.60;;;24.50;46.20;;;;;;4995312;28;114696;-80
2023/09/22 11:21:02;;;;;;;4.63;2.28;;;24.50;46.50;;;;;;5028046;28;114334;-80
2023/09/22 11:23:29;;;;;;;5.38;2.15;;;24.40;46.60;;;;;;5010581;28;114359;-80
2023/09/22 11:26:02;;;;;;;9.00;3.20;;;24.40;46.70;;;;;;5027680;28;115588;-80
2023/09/22 11:28:31;;;;;;;;;;;24.30;46.70;;;;;;5011140;28;114938;-79
2023/09/22 11:31:06;;;;;;;5.90;2.88;;;24.30;46.80;;;;;;5028660;28;114324;-81
2023/09/22 11:33:33;;;;;;;8.05;3.03;;;24.20;46.90;;;;;;5028544;28;114214;-79
2023/09/22 11:36:00;;;;;;;10.05;2.78;;;24.10;47.20;;;;;;5027277;28;116281;-81
2023/09/22 11:38:28;;;;;;;7.88;3.00;;;24.10;47.50;;;;;;5009670;28;115153;-80
2023/09/22 11:41:01;;;;;;;7.40;2.67;;;24.10;47.40;;;;;;5028373;28;114347;-81
2023/09/22 11:43:29;;;;;;;8.83;2.80;;;24.10;47.50;;;;;;5028453;28;114433;-80
2023/09/22 11:46:09;;;;;;;6.97;3.00;;;24.00;47.80;;;;;;5027078;28;115062;-80
2023/09/22 11:49:02;;;;;;;6.35;2.65;;;24.00;47.80;;;;;;5009338;28;117878;-81
2023/09/22 11:51:59;;;;;;;6.22;2.70;;;24.20;47.60;;;;;;5028763;28;114290;-80
2023/09/22 11:54:29;;;;;;;5.90;2.28;;;24.10;47.10;;;;;;4991808;28;114264;-79
2023/09/22 11:56:58;;;;;;;9.85;2.47;;;24.00;47.60;;;;;;5011087;28;114863;-79
2023/09/22 11:59:27;;;;;;;5.18;2.42;;;23.90;47.60;;;;;;4993591;28;115868;-80
2023/09/22 12:01:55;;;;;;;7.55;2.78;;;24.00;47.70;;;;;;5011405;28;114118;-80
2023/09/22 12:04:22;;;;;;;9.15;2.83;;;24.00;47.70;;;;;;5011924;28;114317;-80
2023/09/22 12:06:51;;;;;;;8.00;2.90;;;24.00;47.80;;;;;;5010081;28;116781;-81
2023/09/22 12:09:18;;;;;;;5.68;2.50;;;24.00;47.90;;;;;;5028078;28;114830;-80
2023/09/22 12:11:45;;;;;;;5.93;2.30;;;24.00;47.90;;;;;;5010189;28;114107;-79
2023/09/22 12:14:13;;;;;;;10.10;2.70;;;24.00;47.60;;;;;;5011773;28;114097;-80
2023/09/22 12:16:40;;;;;;;5.90;2.28;;;24.00;47.80;;;;;;5026787;28;115390;-80
2023/09/22 12:19:08;;;;;;;8.45;2.42;;;24.10;47.70;;;;;;5027302;28;115043;-80
2023/09/22 12:21:35;;;;;;;10.13;2.83;;;24.10;47.70;;;;;;5011472;28;114236;-80
2023/09/22 12:24:03;;;;;;;7.45;2.90;;;24.10;47.80;;;;;;5028357;28;114195;-80
2023/09/22 12:26:30;;;;;;;5.45;2.38;;;24.20;48.00;;;;;;5010348;28;114983;-80
2023/09/22 12:29:00;;;;;;;5.43;2.05;;;24.30;47.80;;;;;;5034266;28;114744;-80
2023/09/22 12:31:27;;;;;;;6.55;2.95;;;24.30;48.00;;;;;;5030063;28;114176;-81
2023/09/22 12:33:57;;;;;;;6.20;3.05;;;24.30;48.30;;;;;;5030218;28;114109;-79
2023/09/22 12:36:24;;;;;;;5.55;2.55;;;24.30;48.40;;;;;;4991117;28;116881;-80
2023/09/22 12:38:52;;;;;;;6.95;2.95;;;24.30;49.00;;;;;;5008680;28;118067;-79
2023/09/22 12:41:19;;;;;;;5.30;2.80;;;24.20;49.20;;;;;;5027768;28;114178;-79
2023/09/22 12:43:47;;;;;;;6.38;2.95;;;24.30;49.20;;;;;;5011684;28;114192;-80